createdAt,value
2024-04-08T00:01:21.396Z,18.63
2024-04-08T00:03:48.247Z,18.60
2024-04-08T00:06:15.070Z,18.54
2024-04-08T00:08:41.868Z,18.48
2024-04-08T00:11:08.974Z,18.41
2024-04-08T00:13:38.799Z,18.33
2024-04-08T00:16:08.740Z,18.31
2024-04-08T00:18:35.495Z,18.27
2024-04-08T00:21:04.158Z,18.24
2024-04-08T00:23:31.128Z,18.20
2024-04-08T00:25:57.945Z,18.16
2024-04-08T00:28:24.630Z,18.17
2024-04-08T00:30:51.351Z,18.11
2024-04-08T00:33:18.106Z,18.04
2024-04-08T00:35:44.950Z,18.06
2024-04-08T00:38:11.679Z,18.02
2024-04-08T00:40:39.145Z,18.01
2024-04-08T00:43:08.746Z,18.04
2024-04-08T00:45:40.051Z,18.00
2024-04-08T00:48:08.425Z,17.98
2024-04-08T00:50:37.180Z,18.00
2024-04-08T00:53:04.138Z,17.98
2024-04-08T00:55:33.644Z,17.97
2024-04-08T00:58:00.634Z,17.93
2024-04-08T01:00:27.352Z,17.95
2024-04-08T01:02:55.899Z,17.95
2024-04-08T01:05:22.816Z,18.01
2024-04-08T01:07:49.905Z,18.01
2024-04-08T01:10:18.618Z,17.98
2024-04-08T01:12:45.379Z,17.92
2024-04-08T01:15:12.250Z,17.96
2024-04-08T01:17:39.102Z,17.94
2024-04-08T01:20:06.358Z,17.93
2024-04-08T01:22:34.453Z,17.95
2024-04-08T01:25:01.444Z,18.10
2024-04-08T01:27:28.273Z,18.12
2024-04-08T01:29:54.992Z,18.14
2024-04-08T01:32:22.028Z,18.14
2024-04-08T01:34:48.786Z,18.14
2024-04-08T01:37:15.563Z,18.10
2024-04-08T01:39:42.403Z,18.13
2024-04-08T01:42:09.173Z,18.15
2024-04-08T01:44:36.081Z,18.16
2024-04-08T01:47:02.845Z,18.14
2024-04-08T01:49:29.715Z,18.16
2024-04-08T01:51:56.477Z,18.14
2024-04-08T01:54:23.374Z,18.10
2024-04-08T01:56:50.202Z,18.06
2024-04-08T01:59:17.012Z,17.98
2024-04-08T02:01:43.715Z,17.94
2024-04-08T02:04:10.413Z,17.94
2024-04-08T02:06:37.239Z,17.92
2024-04-08T02:09:04.283Z,17.88
2024-04-08T02:11:31.011Z,17.85
2024-04-08T02:13:57.775Z,17.82
2024-04-08T02:16:24.561Z,17.79
2024-04-08T02:18:52.269Z,17.79
2024-04-08T02:21:19.015Z,17.79
2024-04-08T02:23:46.372Z,17.76
2024-04-08T02:26:13.234Z,17.75
2024-04-08T02:28:39.968Z,17.73
2024-04-08T02:31:06.688Z,17.70
2024-04-08T02:33:33.529Z,17.70
2024-04-08T02:36:05.508Z,17.71
2024-04-08T02:38:34.229Z,17.72
2024-04-08T02:41:01.681Z,17.70
2024-04-08T02:43:28.481Z,17.66
2024-04-08T02:45:55.503Z,17.66
2024-04-08T02:48:22.319Z,17.68
2024-04-08T02:50:49.349Z,17.65
2024-04-08T02:53:16.100Z,17.58
2024-04-08T02:55:42.800Z,17.59
2024-04-08T02:58:09.631Z,17.60
2024-04-08T03:01:15.234Z,17.61
2024-04-08T03:03:42.572Z,17.60
2024-04-08T03:06:12.785Z,17.63
2024-04-08T03:08:41.413Z,17.63
2024-04-08T03:11:09.001Z,17.59
2024-04-08T03:13:40.429Z,17.54
2024-04-08T03:16:07.560Z,17.51
2024-04-08T03:18:34.296Z,17.51
2024-04-08T03:21:05.043Z,17.49
2024-04-08T03:23:32.199Z,17.45
2024-04-08T03:26:07.951Z,17.42
2024-04-08T03:28:34.969Z,17.39
2024-04-08T03:31:09.653Z,17.38
2024-04-08T03:33:36.388Z,17.32
2024-04-08T03:36:09.794Z,17.30
2024-04-08T03:38:36.871Z,17.22
2024-04-08T03:41:05.914Z,17.13
2024-04-08T03:43:33.758Z,17.07
2024-04-08T03:46:01.313Z,17.05
2024-04-08T03:48:28.152Z,17.01
2024-04-08T03:50:54.902Z,16.99
2024-04-08T03:53:21.715Z,16.97
2024-04-08T03:55:48.402Z,16.91
2024-04-08T03:58:15.252Z,16.89
2024-04-08T04:00:42.005Z,16.87
2024-04-08T04:03:11.003Z,16.83
2024-04-08T04:05:37.967Z,16.80
2024-04-08T04:08:05.057Z,16.75
2024-04-08T04:10:31.850Z,16.74
2024-04-08T04:12:58.529Z,16.72
2024-04-08T04:15:25.283Z,16.71
2024-04-08T04:17:52.105Z,16.69
2024-04-08T04:20:25.891Z,16.70
2024-04-08T04:22:52.604Z,16.71
2024-04-08T04:25:19.489Z,16.71
2024-04-08T04:27:46.272Z,16.70
2024-04-08T04:30:13.073Z,16.74
2024-04-08T04:32:41.563Z,16.73
2024-04-08T04:35:08.384Z,16.70
2024-04-08T04:37:35.079Z,16.70
2024-04-08T04:40:02.070Z,16.67
2024-04-08T04:42:28.822Z,16.69
2024-04-08T04:44:55.702Z,16.74
2024-04-08T04:47:22.432Z,16.79
2024-04-08T04:49:49.163Z,16.84
2024-04-08T04:52:16.025Z,16.89
2024-04-08T04:54:42.875Z,16.97
2024-04-08T04:57:09.619Z,17.05
2024-04-08T04:59:36.343Z,17.11
2024-04-08T05:02:03.159Z,17.23
2024-04-08T05:04:29.891Z,17.30
2024-04-08T05:06:56.578Z,17.35
2024-04-08T05:09:23.273Z,17.44
2024-04-08T05:11:50.030Z,17.52
2024-04-08T05:14:17.101Z,17.56
2024-04-08T05:16:44.522Z,17.64
2024-04-08T05:19:11.251Z,17.71
2024-04-08T05:21:38.115Z,17.76
2024-04-08T05:24:05.172Z,17.80
2024-04-08T05:26:31.892Z,17.85
2024-04-08T05:28:58.571Z,17.91
2024-04-08T05:31:25.267Z,17.95
2024-04-08T05:33:52.248Z,17.99
2024-04-08T05:36:19.034Z,18.03
2024-04-08T05:38:45.840Z,18.05
2024-04-08T05:41:12.661Z,18.08
2024-04-08T05:43:39.363Z,18.09
2024-04-08T05:46:06.076Z,18.11
2024-04-08T05:48:32.828Z,18.14
2024-04-08T05:50:59.664Z,18.18
2024-04-08T05:53:26.421Z,18.27
2024-04-08T05:55:53.160Z,18.32
2024-04-08T05:58:19.865Z,18.38
2024-04-08T06:00:47.028Z,18.44
2024-04-08T06:03:13.755Z,18.50
2024-04-08T06:05:42.514Z,18.56
2024-04-08T06:08:09.344Z,18.62
2024-04-08T06:10:38.188Z,18.72
2024-04-08T06:13:05.137Z,18.78
2024-04-08T06:15:33.336Z,18.87
2024-04-08T06:18:00.507Z,18.93
2024-04-08T06:20:28.564Z,19.03
2024-04-08T06:22:55.669Z,19.11
2024-04-08T06:25:22.448Z,19.20
2024-04-08T06:27:49.150Z,19.30
2024-04-08T06:30:15.870Z,19.39
2024-04-08T06:32:42.662Z,19.48
2024-04-08T06:35:09.364Z,19.56
2024-04-08T06:37:36.079Z,19.65
2024-04-08T06:40:02.862Z,19.74
2024-04-08T06:42:29.617Z,19.84
2024-04-08T06:44:56.410Z,19.94
2024-04-08T06:47:25.681Z,20.04
2024-04-08T06:49:52.425Z,20.15
2024-04-08T06:52:19.156Z,20.26
2024-04-08T06:54:45.976Z,20.38
2024-04-08T06:57:12.792Z,20.48
2024-04-08T06:59:39.783Z,20.59
2024-04-08T07:02:06.879Z,20.71
2024-04-08T07:04:34.089Z,20.80
2024-04-08T07:07:00.856Z,20.89
2024-04-08T07:09:28.706Z,20.97
2024-04-08T07:11:59.065Z,21.07
2024-04-08T07:14:26.636Z,21.16
2024-04-08T07:16:53.454Z,21.25
2024-04-08T07:19:20.303Z,21.34
2024-04-08T07:21:47.005Z,21.44
2024-04-08T07:24:14.702Z,21.52
2024-04-08T07:26:41.433Z,21.57
2024-04-08T07:29:08.346Z,21.60
2024-04-08T07:31:35.043Z,21.68
2024-04-08T07:34:01.796Z,21.71
2024-04-08T07:36:28.507Z,21.76
2024-04-08T07:39:01.520Z,21.79
2024-04-08T07:41:29.750Z,21.82
2024-04-08T07:43:56.504Z,21.87
2024-04-08T07:46:23.186Z,21.84
2024-04-08T07:48:49.932Z,21.84
2024-04-08T07:51:16.710Z,21.90
2024-04-08T07:53:43.448Z,21.95
2024-04-08T07:56:10.234Z,21.99
2024-04-08T07:58:37.348Z,22.05
2024-04-08T08:01:05.125Z,22.09
2024-04-08T08:03:32.895Z,22.15
2024-04-08T08:06:01.376Z,22.21
2024-04-08T08:08:29.204Z,22.28
2024-04-08T08:11:04.543Z,22.38
2024-04-08T08:13:32.256Z,22.45
2024-04-08T08:16:00.010Z,22.51
2024-04-08T08:18:27.891Z,22.58
2024-04-08T08:20:55.818Z,22.66
2024-04-08T08:23:22.533Z,22.75
2024-04-08T08:25:50.004Z,22.83
2024-04-08T08:28:17.152Z,22.91
2024-04-08T08:30:43.921Z,22.98
2024-04-08T08:33:10.804Z,23.06
2024-04-08T08:35:37.651Z,23.15
2024-04-08T08:38:04.459Z,23.22
2024-04-08T08:40:33.846Z,23.27
2024-04-08T08:43:00.609Z,23.33
2024-04-08T08:45:28.674Z,23.36
2024-04-08T08:47:56.003Z,23.40
2024-04-08T08:50:24.764Z,23.44
2024-04-08T08:52:51.952Z,23.49
2024-04-08T08:55:20.804Z,23.54
2024-04-08T08:57:48.393Z,23.59
2024-04-08T09:00:18.202Z,23.62
2024-04-08T09:02:46.397Z,23.67
2024-04-08T09:05:13.198Z,23.71
2024-04-08T09:07:40.000Z,23.74
2024-04-08T09:10:07.152Z,23.77
2024-04-08T09:12:33.929Z,23.81
2024-04-08T09:15:00.793Z,23.84
2024-04-08T09:17:27.587Z,23.86
2024-04-08T09:19:54.631Z,23.88
2024-04-08T09:22:21.378Z,23.93
2024-04-08T09:24:48.102Z,23.97
2024-04-08T09:27:15.068Z,24.01
2024-04-08T09:29:41.977Z,24.02
2024-04-08T09:32:11.985Z,24.07
2024-04-08T09:34:38.687Z,24.10
2024-04-08T09:37:09.904Z,24.13
2024-04-08T09:39:41.647Z,24.15
2024-04-08T09:42:13.444Z,24.18
2024-04-08T09:44:44.872Z,24.21
2024-04-08T09:47:14.318Z,24.27
2024-04-08T09:49:48.109Z,24.27
2024-04-08T09:52:17.867Z,24.32
2024-04-08T09:54:44.705Z,24.32
2024-04-08T09:57:16.559Z,24.36
2024-04-08T09:59:43.915Z,24.37
2024-04-08T10:02:16.949Z,24.39
2024-04-08T10:04:44.160Z,24.40
2024-04-08T10:07:13.039Z,24.43
2024-04-08T10:09:40.342Z,24.44
2024-04-08T10:12:08.890Z,24.45
2024-04-08T10:14:36.131Z,24.46
2024-04-08T10:17:02.969Z,24.48
2024-04-08T10:19:29.842Z,24.50
2024-04-08T10:22:03.648Z,24.51
2024-04-08T10:24:39.214Z,24.52
2024-04-08T10:27:09.468Z,24.57
2024-04-08T10:29:39.439Z,24.57
2024-04-08T10:32:08.082Z,24.58
2024-04-08T10:34:36.095Z,24.60
2024-04-08T10:37:02.812Z,24.61
2024-04-08T10:39:30.116Z,24.63
2024-04-08T10:42:12.579Z,24.63
2024-04-08T10:44:39.423Z,24.65
2024-04-08T10:47:09.822Z,24.66
2024-04-08T10:49:37.203Z,24.67
2024-04-08T10:52:04.374Z,24.69
2024-04-08T10:54:32.665Z,24.71
2024-04-08T10:57:00.005Z,24.69
2024-04-08T10:59:27.083Z,24.72
2024-04-08T11:01:54.777Z,24.75
2024-04-08T11:04:23.031Z,24.78
2024-04-08T11:06:49.869Z,24.80
2024-04-08T11:09:17.209Z,24.80
2024-04-08T11:11:44.161Z,24.82
2024-04-08T11:14:10.898Z,24.84
2024-04-08T11:16:38.122Z,24.85
2024-04-08T11:19:04.920Z,24.86
2024-04-08T11:21:31.964Z,24.88
2024-04-08T11:23:58.817Z,24.90
2024-04-08T11:26:31.939Z,24.94
2024-04-08T11:29:02.662Z,24.96
2024-04-08T11:31:29.409Z,24.96
2024-04-08T11:33:56.137Z,24.96
2024-04-08T11:36:22.875Z,25.00
2024-04-08T11:38:50.031Z,25.02
2024-04-08T11:41:16.812Z,25.05
2024-04-08T11:43:45.837Z,25.06
2024-04-08T11:46:13.726Z,25.06
2024-04-08T11:48:42.986Z,25.09
2024-04-08T11:51:09.867Z,25.11
2024-04-08T11:53:36.603Z,25.11
2024-04-08T11:56:03.779Z,25.14
2024-04-08T11:58:30.462Z,25.18
2024-04-08T12:00:57.266Z,25.19
2024-04-08T12:03:24.281Z,25.21
2024-04-08T12:05:51.160Z,25.23
2024-04-08T12:08:17.947Z,25.26
2024-04-08T12:10:44.895Z,25.28
2024-04-08T12:13:19.875Z,25.31
2024-04-08T12:15:48.406Z,25.31
2024-04-08T12:18:15.465Z,25.33
2024-04-08T12:20:42.386Z,25.35
2024-04-08T12:23:13.123Z,25.35
2024-04-08T12:25:40.437Z,25.38
2024-04-08T12:28:09.922Z,25.39
2024-04-08T12:30:37.192Z,25.39
2024-04-08T12:33:04.695Z,25.41
2024-04-08T12:35:31.620Z,25.44
2024-04-08T12:37:58.393Z,25.43
2024-04-08T12:40:25.266Z,25.46
2024-04-08T12:42:52.198Z,25.47
2024-04-08T12:45:19.117Z,25.49
2024-04-08T12:47:46.289Z,25.50
2024-04-08T12:50:13.154Z,25.50
2024-04-08T12:52:40.167Z,25.52
2024-04-08T12:55:07.675Z,25.54
2024-04-08T12:57:34.494Z,25.55
2024-04-08T13:00:01.480Z,25.56
2024-04-08T13:02:29.633Z,25.58
2024-04-08T13:04:56.688Z,25.59
2024-04-08T13:07:23.700Z,25.60
2024-04-08T13:09:52.703Z,25.60
2024-04-08T13:12:19.721Z,25.63
2024-04-08T13:14:46.689Z,25.64
2024-04-08T13:17:14.095Z,25.63
2024-04-08T13:19:43.244Z,25.64
2024-04-08T13:22:11.734Z,25.65
2024-04-08T13:24:38.485Z,25.67
2024-04-08T13:27:05.556Z,-147.79
2024-04-08T13:29:32.735Z,-147.79
2024-04-08T13:31:59.479Z,-147.79
2024-04-08T13:34:26.488Z,-147.79
2024-04-08T13:36:53.486Z,-147.79
2024-04-08T13:39:20.357Z,-147.79
2024-04-08T13:41:49.011Z,-147.79
2024-04-08T13:44:15.834Z,-147.79
2024-04-08T13:46:43.592Z,-147.79
2024-04-08T13:49:10.514Z,-147.79
2024-04-08T13:51:37.398Z,-147.79
2024-04-08T13:54:05.794Z,-147.79
2024-04-08T13:56:34.496Z,-147.79
2024-04-08T13:59:01.882Z,-147.79
2024-04-08T14:01:28.894Z,-147.79
2024-04-08T14:04:00.036Z,-147.79
2024-04-08T14:06:27.415Z,-147.79
2024-04-08T14:08:54.351Z,-147.79
2024-04-08T14:11:21.453Z,-147.79
2024-04-08T14:13:48.375Z,-147.79
2024-04-08T14:16:15.181Z,-147.79
2024-04-08T14:18:42.243Z,-147.79
2024-04-08T14:21:10.808Z,-147.79
2024-04-08T14:23:37.804Z,-147.79
2024-04-08T14:26:04.683Z,-147.79
2024-04-08T14:28:31.920Z,-147.79
2024-04-08T14:30:59.105Z,-147.79
2024-04-08T14:33:26.191Z,-147.79
2024-04-08T14:35:53.343Z,-147.79
2024-04-08T14:38:39.631Z,-147.79
2024-04-08T14:41:09.498Z,-147.79
2024-04-08T14:43:43.917Z,-147.79
2024-04-08T14:46:18.342Z,-147.79
2024-04-08T14:48:45.652Z,-147.79
2024-04-08T14:51:14.189Z,-147.79
2024-04-08T14:53:44.392Z,-147.79
2024-04-08T14:56:13.032Z,-147.79
2024-04-08T14:58:45.452Z,-147.79
2024-04-08T15:01:14.446Z,-147.79
2024-04-08T15:03:41.870Z,-147.79
2024-04-08T15:06:09.010Z,-147.79
2024-04-08T15:08:37.716Z,-147.79
2024-04-08T15:11:05.418Z,-147.79
2024-04-08T15:13:32.234Z,-147.79
2024-04-08T15:15:59.062Z,-147.79
2024-04-08T15:18:26.815Z,-147.79
2024-04-08T15:20:54.132Z,-147.79
2024-04-08T15:23:21.847Z,-147.79
2024-04-08T15:25:48.732Z,-147.79
2024-04-08T15:28:15.499Z,-147.79
2024-04-08T15:30:43.268Z,-147.79
2024-04-08T15:33:10.445Z,-147.79
2024-04-08T15:35:37.311Z,-147.79
2024-04-08T15:38:04.568Z,-147.79
2024-04-08T15:40:33.855Z,-147.79
2024-04-08T15:43:00.717Z,-147.79
2024-04-08T15:45:27.789Z,-147.79
2024-04-08T15:47:55.109Z,-147.79
2024-04-08T15:50:22.036Z,-147.79
2024-04-08T15:52:48.906Z,-147.79
2024-04-08T15:55:18.118Z,-147.79
2024-04-08T15:57:44.957Z,-147.79
2024-04-08T16:00:13.761Z,-147.79
2024-04-08T16:02:40.676Z,-147.79
2024-04-08T16:05:07.778Z,-147.79
2024-04-08T16:07:35.833Z,-147.79
2024-04-08T16:10:02.698Z,-147.79
2024-04-08T16:12:32.174Z,-147.79
2024-04-08T16:15:01.331Z,-147.79
2024-04-08T16:17:28.503Z,-147.79
2024-04-08T16:19:55.273Z,-147.79
2024-04-08T16:22:27.457Z,-147.79
2024-04-08T16:24:57.877Z,-147.79
2024-04-08T16:27:26.396Z,-147.79
2024-04-08T16:29:53.529Z,-147.79
2024-04-08T16:32:20.513Z,-147.79
2024-04-08T16:34:47.372Z,-147.79
2024-04-08T16:37:14.144Z,-147.79
2024-04-08T16:39:40.919Z,-147.79
2024-04-08T16:42:08.168Z,-147.79
2024-04-08T16:44:35.010Z,-147.79
2024-04-08T16:47:01.890Z,-147.79
2024-04-08T16:49:33.942Z,-147.79
2024-04-08T16:52:01.019Z,-147.79
2024-04-08T16:54:30.320Z,-147.79
2024-04-08T16:56:57.228Z,-147.79
2024-04-08T16:59:24.020Z,-147.79
2024-04-08T17:01:52.795Z,-147.79
2024-04-08T17:04:19.708Z,-147.79
2024-04-08T17:06:52.346Z,-147.79
2024-04-08T17:09:26.239Z,-147.79
2024-04-08T17:11:54.044Z,-147.79
2024-04-08T17:14:20.894Z,-147.79
2024-04-08T17:16:49.733Z,-147.79
2024-04-08T17:19:19.916Z,-147.79
2024-04-08T17:21:46.772Z,-147.79
2024-04-08T17:24:13.686Z,-147.79
2024-04-08T17:26:41.810Z,-147.79
2024-04-08T17:29:08.540Z,-147.79
2024-04-08T17:31:35.324Z,-147.79
2024-04-08T17:34:02.169Z,-147.79
2024-04-08T17:36:29.175Z,-147.79
2024-04-08T17:38:56.008Z,-147.79
2024-04-08T17:41:25.896Z,-147.79
2024-04-08T17:43:57.185Z,-147.79
2024-04-08T17:46:24.978Z,-147.79
2024-04-08T17:48:52.096Z,-147.79
2024-04-08T17:51:19.042Z,-147.79
2024-04-08T17:53:45.924Z,-147.79
2024-04-08T17:56:17.533Z,-147.79
2024-04-08T17:58:45.563Z,-147.79
2024-04-08T18:01:15.959Z,-147.79
2024-04-08T18:03:44.636Z,-147.79
2024-04-08T18:06:12.643Z,-147.79
2024-04-08T18:08:43.639Z,-147.79
2024-04-08T18:11:13.060Z,-147.79
2024-04-08T18:13:41.026Z,-147.79
2024-04-08T18:16:16.845Z,-147.79
2024-04-08T18:18:46.918Z,-147.79
2024-04-08T18:21:13.940Z,-147.79
2024-04-08T18:23:41.202Z,-147.79
2024-04-08T18:26:16.039Z,-147.79
2024-04-08T18:28:43.738Z,-147.79
2024-04-08T18:31:14.602Z,-147.79
2024-04-08T18:33:42.664Z,-147.79
2024-04-08T18:36:10.220Z,-147.79
2024-04-08T18:38:37.482Z,-147.79
2024-04-08T18:41:08.812Z,-147.79
2024-04-08T18:43:37.270Z,-147.79
2024-04-08T18:46:07.183Z,-147.79
2024-04-08T18:48:34.341Z,-147.79
2024-04-08T18:51:01.816Z,-147.79
2024-04-08T18:53:28.727Z,-147.79
2024-04-08T18:55:55.520Z,-147.79
2024-04-08T18:58:22.264Z,-147.79
2024-04-08T19:00:49.095Z,-147.79
2024-04-08T19:03:19.037Z,-147.79
2024-04-08T19:05:49.734Z,-147.79
2024-04-08T19:08:17.293Z,-147.79
2024-04-08T19:10:44.182Z,-147.79
2024-04-08T19:13:11.181Z,-147.79
2024-04-08T19:15:38.520Z,-147.79
2024-04-08T19:18:05.900Z,-147.79
2024-04-08T19:20:32.858Z,-147.79
2024-04-08T19:22:59.693Z,-147.79
2024-04-08T19:25:26.490Z,-147.79
2024-04-08T19:27:56.814Z,-147.79
2024-04-08T19:30:23.685Z,-147.79
2024-04-08T19:32:50.944Z,-147.79
2024-04-08T19:35:17.762Z,-147.79
2024-04-08T19:37:44.759Z,-147.79
2024-04-08T19:40:13.727Z,-147.79
2024-04-08T19:42:40.573Z,-147.79
2024-04-08T19:45:09.739Z,-147.79
2024-04-08T19:47:44.577Z,-147.79
2024-04-08T19:50:12.557Z,-147.79
2024-04-08T19:52:39.714Z,-147.79
2024-04-08T19:55:07.595Z,-147.79
2024-04-08T19:57:35.683Z,-147.79
2024-04-08T20:00:10.294Z,-147.79
2024-04-08T20:02:39.018Z,-147.79
2024-04-08T20:05:06.951Z,-147.79
2024-04-08T20:07:33.804Z,-147.79
2024-04-08T20:10:00.565Z,-147.79
2024-04-08T20:12:27.690Z,-147.79
2024-04-08T20:14:54.634Z,-147.79
2024-04-08T20:17:21.523Z,-147.79
2024-04-08T20:19:48.289Z,-147.79
2024-04-08T20:22:15.086Z,-147.79
2024-04-08T20:24:41.896Z,-147.79
2024-04-08T20:27:08.870Z,-147.79
2024-04-08T20:29:35.729Z,-147.79
2024-04-08T20:32:02.525Z,-147.79
2024-04-08T20:34:29.378Z,-147.79
2024-04-08T20:36:56.662Z,-147.79
2024-04-08T20:39:23.846Z,-147.79
2024-04-08T20:41:50.784Z,-147.79
2024-04-08T20:44:17.608Z,-147.79
2024-04-08T20:46:44.375Z,-147.79
2024-04-08T20:49:11.250Z,-147.79
2024-04-08T20:51:45.306Z,-147.79
2024-04-08T20:54:15.537Z,-147.79
2024-04-08T20:56:42.622Z,-147.79
2024-04-08T20:59:09.379Z,-147.79
2024-04-08T21:01:36.248Z,-147.79
2024-04-08T21:04:03.440Z,-147.79
2024-04-08T21:06:30.383Z,-147.79
2024-04-08T21:08:57.227Z,-147.79
2024-04-08T21:11:24.902Z,-147.79
2024-04-08T21:13:51.684Z,-147.79
2024-04-08T21:16:18.414Z,-147.79
2024-04-08T21:18:45.442Z,-147.79
2024-04-08T21:21:12.357Z,-147.79
2024-04-08T21:23:40.671Z,-147.79
2024-04-08T21:26:15.529Z,-147.79
2024-04-08T21:28:43.774Z,-147.79
2024-04-08T21:31:11.963Z,-147.79
2024-04-08T21:33:40.158Z,-147.79
2024-04-08T21:36:08.552Z,-147.79
2024-04-08T21:38:35.808Z,-147.79
2024-04-08T21:41:05.336Z,-147.79
2024-04-08T21:43:32.488Z,-147.79
2024-04-08T21:46:01.748Z,-147.79
2024-04-08T21:48:28.998Z,-147.79
2024-04-08T21:50:58.824Z,-147.79
2024-04-08T21:53:29.431Z,-147.79
2024-04-08T21:56:00.224Z,-147.79
2024-04-08T21:58:27.627Z,-147.79
2024-04-08T22:00:56.572Z,-147.79
2024-04-08T22:03:25.291Z,-147.79
2024-04-08T22:05:52.292Z,-147.79
2024-04-08T22:08:19.224Z,-147.79
2024-04-08T22:10:46.143Z,-147.79
2024-04-08T22:13:13.023Z,-147.79
2024-04-08T22:15:40.452Z,-147.79
2024-04-08T22:18:08.592Z,-147.79
2024-04-08T22:20:35.576Z,-147.79
2024-04-08T22:23:07.285Z,-147.79
2024-04-08T22:25:37.685Z,-147.79
2024-04-08T22:28:05.194Z,-147.79
2024-04-08T22:30:32.273Z,-147.79
2024-04-08T22:32:59.383Z,-147.79
2024-04-08T22:35:26.333Z,-147.79
2024-04-08T22:37:54.305Z,-147.79
2024-04-08T22:40:21.754Z,-147.79
2024-04-08T22:42:52.113Z,-147.79
2024-04-08T22:45:19.041Z,-147.79
2024-04-08T22:47:47.331Z,-147.79
2024-04-08T22:50:14.876Z,-147.79
2024-04-08T22:52:41.663Z,-147.79
2024-04-08T22:55:10.874Z,-147.79
2024-04-08T22:57:44.885Z,-147.79
2024-04-08T23:00:13.529Z,-147.79
2024-04-08T23:02:40.798Z,-147.79
2024-04-08T23:05:08.391Z,-147.79
2024-04-08T23:07:35.753Z,-147.79
2024-04-08T23:10:03.125Z,-147.79
2024-04-08T23:12:29.952Z,-147.79
2024-04-08T23:14:56.710Z,-147.79
2024-04-08T23:17:23.451Z,-147.79
2024-04-08T23:19:50.606Z,-147.79
2024-04-08T23:22:17.446Z,-147.79
2024-04-08T23:24:44.180Z,-147.79
2024-04-08T23:27:14.504Z,-147.79
2024-04-08T23:29:41.427Z,-147.79
2024-04-08T23:32:08.273Z,-147.79
2024-04-08T23:34:35.380Z,-147.79
2024-04-08T23:37:02.250Z,-147.79
2024-04-08T23:39:29.108Z,-147.79
2024-04-08T23:41:56.100Z,-147.79
2024-04-08T23:44:22.946Z,-147.79
2024-04-08T23:46:49.745Z,-147.79
2024-04-08T23:49:16.618Z,-147.79
2024-04-08T23:51:43.697Z,-147.79
2024-04-08T23:54:10.840Z,-147.79
2024-04-08T23:56:37.696Z,-147.79
2024-04-08T23:59:04.419Z,-147.79
